sensor_id;sensor_type;location;lat;lon;timestamp;P1;durP1;ratioP1;P2;durP2;ratioP2
72573;SDS011;60603;52.548;13.420;2023-07-29T00:01:34;11.90;;;7.45;;
72573;SDS011;60603;52.548;13.420;2023-07-29T00:04:01;15.82;;;7.75;;
72573;SDS011;60603;52.548;13.420;2023-07-29T00:06:28;13.15;;;7.68;;
72573;SDS011;60603;52.548;13.420;2023-07-29T00:08:55;13.02;;;7.55;;
72573;SDS011;60603;52.548;13.420;2023-07-29T00:11:22;16.73;;;8.07;;
72573;SDS011;60603;52.548;13.420;2023-07-29T00:13:49;13.82;;;7.85;;
72573;SDS011;60603;52.548;13.420;2023-07-29T00:16:17;13.75;;;7.85;;
72573;SDS011;60603;52.548;13.420;2023-07-29T00:18:44;15.18;;;8.77;;
72573;SDS011;60603;52.548;13.420;2023-07-29T00:21:11;14.93;;;8.60;;
72573;SDS011;60603;52.548;13.420;2023-07-29T00:23:38;14.30;;;8.02;;
72573;SDS011;60603;52.548;13.420;2023-07-29T00:26:05;14.88;;;7.93;;
72573;SDS011;60603;52.548;13.420;2023-07-29T00:28:31;16.52;;;8.45;;
72573;SDS011;60603;52.548;13.420;2023-07-29T00:30:59;14.90;;;8.50;;
72573;SDS011;60603;52.548;13.420;2023-07-29T00:33:25;16.45;;;9.20;;
72573;SDS011;60603;52.548;13.420;2023-07-29T00:35:53;16.05;;;8.90;;
72573;SDS011;60603;52.548;13.420;2023-07-29T00:38:19;14.13;;;8.23;;
72573;SDS011;60603;52.548;13.420;2023-07-29T00:40:46;16.63;;;9.25;;
72573;SDS011;60603;52.548;13.420;2023-07-29T00:43:13;16.23;;;9.15;;
72573;SDS011;60603;52.548;13.420;2023-07-29T00:45:40;16.27;;;9.10;;
72573;SDS011;60603;52.548;13.420;2023-07-29T00:48:08;17.38;;;9.43;;
72573;SDS011;60603;52.548;13.420;2023-07-29T00:50:35;16.60;;;9.43;;
72573;SDS011;60603;52.548;13.420;2023-07-29T00:53:02;19.27;;;8.88;;
72573;SDS011;60603;52.548;13.420;2023-07-29T00:55:29;17.20;;;8.82;;
72573;SDS011;60603;52.548;13.420;2023-07-29T00:57:56;20.60;;;9.65;;
72573;SDS011;60603;52.548;13.420;2023-07-29T01:00:24;17.02;;;9.52;;
72573;SDS011;60603;52.548;13.420;2023-07-29T01:02:51;17.98;;;9.85;;
72573;SDS011;60603;52.548;13.420;2023-07-29T01:05:21;15.15;;;9.13;;
72573;SDS011;60603;52.548;13.420;2023-07-29T01:13:14;19.42;;;10.93;;
72573;SDS011;60603;52.548;13.420;2023-07-29T01:18:23;19.50;;;10.23;;
72573;SDS011;60603;52.548;13.420;2023-07-29T01:20:58;17.77;;;10.10;;
72573;SDS011;60603;52.548;13.420;2023-07-29T01:23:29;21.38;;;9.90;;
72573;SDS011;60603;52.548;13.420;2023-07-29T01:25:57;25.65;;;10.45;;
72573;SDS011;60603;52.548;13.420;2023-07-29T01:28:23;20.38;;;10.75;;
72573;SDS011;60603;52.548;13.420;2023-07-29T01:30:52;23.48;;;10.63;;
72573;SDS011;60603;52.548;13.420;2023-07-29T01:33:25;19.65;;;10.55;;
72573;SDS011;60603;52.548;13.420;2023-07-29T01:38:49;19.77;;;11.00;;
72573;SDS011;60603;52.548;13.420;2023-07-29T01:41:17;23.08;;;9.88;;
72573;SDS011;60603;52.548;13.420;2023-07-29T01:43:45;19.52;;;9.90;;
72573;SDS011;60603;52.548;13.420;2023-07-29T01:46:13;20.90;;;9.85;;
72573;SDS011;60603;52.548;13.420;2023-07-29T01:48:41;23.60;;;11.93;;
72573;SDS011;60603;52.548;13.420;2023-07-29T01:51:10;18.60;;;10.10;;
72573;SDS011;60603;52.548;13.420;2023-07-29T01:53:38;18.98;;;10.27;;
72573;SDS011;60603;52.548;13.420;2023-07-29T01:56:05;18.73;;;10.50;;
72573;SDS011;60603;52.548;13.420;2023-07-29T01:58:32;20.58;;;10.38;;
72573;SDS011;60603;52.548;13.420;2023-07-29T02:00:59;18.65;;;9.98;;
72573;SDS011;60603;52.548;13.420;2023-07-29T02:03:26;18.48;;;10.75;;
72573;SDS011;60603;52.548;13.420;2023-07-29T02:05:53;18.55;;;10.35;;
72573;SDS011;60603;52.548;13.420;2023-07-29T02:08:19;21.65;;;11.13;;
72573;SDS011;60603;52.548;13.420;2023-07-29T02:10:47;21.08;;;11.15;;
72573;SDS011;60603;52.548;13.420;2023-07-29T02:13:15;20.52;;;10.98;;
72573;SDS011;60603;52.548;13.420;2023-07-29T02:15:42;20.70;;;10.57;;
72573;SDS011;60603;52.548;13.420;2023-07-29T02:18:09;18.95;;;10.68;;
72573;SDS011;60603;52.548;13.420;2023-07-29T02:20:36;18.95;;;10.52;;
72573;SDS011;60603;52.548;13.420;2023-07-29T02:23:03;19.23;;;10.40;;
72573;SDS011;60603;52.548;13.420;2023-07-29T02:25:30;19.95;;;10.95;;
72573;SDS011;60603;52.548;13.420;2023-07-29T02:27:56;21.17;;;11.40;;
72573;SDS011;60603;52.548;13.420;2023-07-29T02:30:23;21.95;;;11.93;;
72573;SDS011;60603;52.548;13.420;2023-07-29T02:32:50;20.17;;;10.63;;
72573;SDS011;60603;52.548;13.420;2023-07-29T02:35:17;20.33;;;10.80;;
72573;SDS011;60603;52.548;13.420;2023-07-29T02:37:44;18.95;;;10.90;;
72573;SDS011;60603;52.548;13.420;2023-07-29T02:40:11;20.17;;;10.52;;
72573;SDS011;60603;52.548;13.420;2023-07-29T02:42:38;20.40;;;10.80;;
72573;SDS011;60603;52.548;13.420;2023-07-29T02:45:05;20.73;;;11.18;;
72573;SDS011;60603;52.548;13.420;2023-07-29T02:47:36;20.75;;;11.68;;
72573;SDS011;60603;52.548;13.420;2023-07-29T02:50:04;20.10;;;11.25;;
72573;SDS011;60603;52.548;13.420;2023-07-29T02:52:31;21.58;;;11.73;;
72573;SDS011;60603;52.548;13.420;2023-07-29T02:54:58;19.92;;;11.20;;
72573;SDS011;60603;52.548;13.420;2023-07-29T02:57:25;21.40;;;11.65;;
72573;SDS011;60603;52.548;13.420;2023-07-29T02:59:52;19.55;;;11.20;;
72573;SDS011;60603;52.548;13.420;2023-07-29T03:02:18;24.48;;;11.80;;
72573;SDS011;60603;52.548;13.420;2023-07-29T03:04:47;27.73;;;12.65;;
72573;SDS011;60603;52.548;13.420;2023-07-29T03:07:14;23.80;;;13.18;;
72573;SDS011;60603;52.548;13.420;2023-07-29T03:09:41;23.52;;;11.98;;
72573;SDS011;60603;52.548;13.420;2023-07-29T03:12:08;26.73;;;11.88;;
72573;SDS011;60603;52.548;13.420;2023-07-29T03:14:35;20.02;;;10.52;;
72573;SDS011;60603;52.548;13.420;2023-07-29T03:17:02;21.77;;;12.07;;
72573;SDS011;60603;52.548;13.420;2023-07-29T03:19:31;20.05;;;11.07;;
72573;SDS011;60603;52.548;13.420;2023-07-29T03:21:57;19.50;;;11.00;;
72573;SDS011;60603;52.548;13.420;2023-07-29T03:24:24;20.65;;;11.23;;
72573;SDS011;60603;52.548;13.420;2023-07-29T03:26:51;21.15;;;11.55;;
72573;SDS011;60603;52.548;13.420;2023-07-29T03:29:18;23.60;;;11.38;;
72573;SDS011;60603;52.548;13.420;2023-07-29T03:31:45;18.33;;;10.88;;
72573;SDS011;60603;52.548;13.420;2023-07-29T03:34:11;21.70;;;11.18;;
72573;SDS011;60603;52.548;13.420;2023-07-29T03:36:39;21.23;;;11.52;;
72573;SDS011;60603;52.548;13.420;2023-07-29T03:39:06;18.73;;;10.88;;
72573;SDS011;60603;52.548;13.420;2023-07-29T03:41:34;20.80;;;11.07;;
72573;SDS011;60603;52.548;13.420;2023-07-29T03:44:01;18.98;;;11.43;;
72573;SDS011;60603;52.548;13.420;2023-07-29T03:46:27;22.95;;;11.15;;
72573;SDS011;60603;52.548;13.420;2023-07-29T03:48:54;18.67;;;10.93;;
72573;SDS011;60603;52.548;13.420;2023-07-29T03:51:21;18.58;;;9.70;;
72573;SDS011;60603;52.548;13.420;2023-07-29T03:53:49;19.20;;;9.90;;
72573;SDS011;60603;52.548;13.420;2023-07-29T03:56:16;17.10;;;9.02;;
72573;SDS011;60603;52.548;13.420;2023-07-29T03:58:43;18.00;;;10.85;;
72573;SDS011;60603;52.548;13.420;2023-07-29T04:01:10;17.52;;;10.25;;
72573;SDS011;60603;52.548;13.420;2023-07-29T04:03:37;20.67;;;11.13;;
72573;SDS011;60603;52.548;13.420;2023-07-29T04:06:04;16.92;;;9.32;;
72573;SDS011;60603;52.548;13.420;2023-07-29T04:08:31;17.33;;;9.63;;
72573;SDS011;60603;52.548;13.420;2023-07-29T04:10:58;16.15;;;9.80;;
72573;SDS011;60603;52.548;13.420;2023-07-29T04:13:27;15.88;;;9.52;;
72573;SDS011;60603;52.548;13.420;2023-07-29T04:15:53;14.07;;;9.60;;
72573;SDS011;60603;52.548;13.420;2023-07-29T04:18:20;16.17;;;9.13;;
72573;SDS011;60603;52.548;13.420;2023-07-29T04:20:47;15.15;;;9.27;;
72573;SDS011;60603;52.548;13.420;2023-07-29T04:23:14;13.98;;;9.35;;
72573;SDS011;60603;52.548;13.420;2023-07-29T04:25:41;16.90;;;9.52;;
72573;SDS011;60603;52.548;13.420;2023-07-29T04:28:08;16.25;;;8.57;;
72573;SDS011;60603;52.548;13.420;2023-07-29T04:30:34;15.63;;;8.60;;
72573;SDS011;60603;52.548;13.420;2023-07-29T04:33:02;12.50;;;8.15;;
72573;SDS011;60603;52.548;13.420;2023-07-29T04:35:29;13.55;;;8.63;;
72573;SDS011;60603;52.548;13.420;2023-07-29T04:37:56;12.55;;;7.45;;
72573;SDS011;60603;52.548;13.420;2023-07-29T04:40:23;10.93;;;6.57;;
72573;SDS011;60603;52.548;13.420;2023-07-29T04:42:50;13.65;;;7.10;;
72573;SDS011;60603;52.548;13.420;2023-07-29T04:45:17;9.35;;;6.20;;
72573;SDS011;60603;52.548;13.420;2023-07-29T04:47:44;9.38;;;6.07;;
72573;SDS011;60603;52.548;13.420;2023-07-29T04:50:11;10.15;;;6.07;;
72573;SDS011;60603;52.548;13.420;2023-07-29T04:52:38;9.82;;;6.60;;
72573;SDS011;60603;52.548;13.420;2023-07-29T04:55:05;10.18;;;6.70;;
72573;SDS011;60603;52.548;13.420;2023-07-29T04:57:32;9.00;;;6.00;;
72573;SDS011;60603;52.548;13.420;2023-07-29T04:59:59;8.07;;;5.65;;
72573;SDS011;60603;52.548;13.420;2023-07-29T05:02:26;9.02;;;5.45;;
72573;SDS011;60603;52.548;13.420;2023-07-29T05:04:52;11.52;;;5.38;;
72573;SDS011;60603;52.548;13.420;2023-07-29T05:07:19;7.43;;;5.00;;
72573;SDS011;60603;52.548;13.420;2023-07-29T05:09:47;8.10;;;5.13;;
72573;SDS011;60603;52.548;13.420;2023-07-29T05:12:14;8.27;;;4.82;;
72573;SDS011;60603;52.548;13.420;2023-07-29T05:14:41;5.88;;;4.50;;
72573;SDS011;60603;52.548;13.420;2023-07-29T05:17:08;9.77;;;4.70;;
72573;SDS011;60603;52.548;13.420;2023-07-29T05:19:35;7.95;;;5.38;;
72573;SDS011;60603;52.548;13.420;2023-07-29T05:22:02;6.60;;;4.63;;
72573;SDS011;60603;52.548;13.420;2023-07-29T05:24:30;6.00;;;4.00;;
72573;SDS011;60603;52.548;13.420;2023-07-29T05:26:57;10.38;;;5.00;;
72573;SDS011;60603;52.548;13.420;2023-07-29T05:29:24;6.65;;;4.10;;
72573;SDS011;60603;52.548;13.420;2023-07-29T05:31:51;7.35;;;4.18;;
72573;SDS011;60603;52.548;13.420;2023-07-29T05:34:17;6.32;;;4.30;;
72573;SDS011;60603;52.548;13.420;2023-07-29T05:36:44;5.90;;;3.95;;
72573;SDS011;60603;52.548;13.420;2023-07-29T05:39:11;5.97;;;4.13;;
72573;SDS011;60603;52.548;13.420;2023-07-29T05:41:38;7.38;;;4.20;;
72573;SDS011;60603;52.548;13.420;2023-07-29T05:44:05;7.35;;;4.40;;
72573;SDS011;60603;52.548;13.420;2023-07-29T05:46:36;6.22;;;4.13;;
72573;SDS011;60603;52.548;13.420;2023-07-29T05:49:03;6.20;;;4.35;;
72573;SDS011;60603;52.548;13.420;2023-07-29T05:51:31;6.22;;;4.28;;
72573;SDS011;60603;52.548;13.420;2023-07-29T05:53:59;8.60;;;4.88;;
72573;SDS011;60603;52.548;13.420;2023-07-29T05:56:26;6.63;;;4.25;;
72573;SDS011;60603;52.548;13.420;2023-07-29T05:58:53;6.32;;;4.22;;
72573;SDS011;60603;52.548;13.420;2023-07-29T06:01:20;8.88;;;4.53;;
72573;SDS011;60603;52.548;13.420;2023-07-29T06:03:48;6.97;;;4.47;;
72573;SDS011;60603;52.548;13.420;2023-07-29T06:06:15;6.78;;;4.13;;
72573;SDS011;60603;52.548;13.420;2023-07-29T06:08:42;6.63;;;4.13;;
72573;SDS011;60603;52.548;13.420;2023-07-29T06:11:10;6.72;;;4.03;;
72573;SDS011;60603;52.548;13.420;2023-07-29T06:13:36;42.92;;;12.13;;
72573;SDS011;60603;52.548;13.420;2023-07-29T06:16:03;44.15;;;12.98;;
72573;SDS011;60603;52.548;13.420;2023-07-29T06:18:30;6.38;;;4.18;;
72573;SDS011;60603;52.548;13.420;2023-07-29T06:20:57;8.82;;;4.63;;
72573;SDS011;60603;52.548;13.420;2023-07-29T06:23:24;6.82;;;4.18;;
72573;SDS011;60603;52.548;13.420;2023-07-29T06:25:51;7.18;;;4.88;;
72573;SDS011;60603;52.548;13.420;2023-07-29T06:28:18;7.82;;;3.78;;
72573;SDS011;60603;52.548;13.420;2023-07-29T06:30:45;6.55;;;3.50;;
72573;SDS011;60603;52.548;13.420;2023-07-29T06:33:12;6.47;;;4.20;;
72573;SDS011;60603;52.548;13.420;2023-07-29T06:35:39;7.05;;;3.83;;
72573;SDS011;60603;52.548;13.420;2023-07-29T06:38:05;7.13;;;3.72;;
72573;SDS011;60603;52.548;13.420;2023-07-29T06:40:32;6.15;;;3.70;;
72573;SDS011;60603;52.548;13.420;2023-07-29T06:42:59;5.78;;;3.80;;
72573;SDS011;60603;52.548;13.420;2023-07-29T06:45:26;5.00;;;3.50;;
72573;SDS011;60603;52.548;13.420;2023-07-29T06:47:53;11.20;;;4.40;;
72573;SDS011;60603;52.548;13.420;2023-07-29T06:50:20;5.90;;;3.17;;
72573;SDS011;60603;52.548;13.420;2023-07-29T06:52:47;7.10;;;4.22;;
72573;SDS011;60603;52.548;13.420;2023-07-29T06:55:14;6.18;;;3.53;;
72573;SDS011;60603;52.548;13.420;2023-07-29T06:57:40;6.32;;;3.38;;
72573;SDS011;60603;52.548;13.420;2023-07-29T07:00:07;4.70;;;3.60;;
72573;SDS011;60603;52.548;13.420;2023-07-29T07:02:35;8.10;;;4.80;;
72573;SDS011;60603;52.548;13.420;2023-07-29T07:05:03;5.80;;;3.55;;
72573;SDS011;60603;52.548;13.420;2023-07-29T07:07:30;5.78;;;3.35;;
72573;SDS011;60603;52.548;13.420;2023-07-29T07:09:57;5.95;;;3.42;;
72573;SDS011;60603;52.548;13.420;2023-07-29T07:12:27;7.13;;;3.35;;
72573;SDS011;60603;52.548;13.420;2023-07-29T07:14:54;5.43;;;3.40;;
72573;SDS011;60603;52.548;13.420;2023-07-29T07:17:20;7.40;;;3.53;;
72573;SDS011;60603;52.548;13.420;2023-07-29T07:19:47;4.43;;;2.95;;
72573;SDS011;60603;52.548;13.420;2023-07-29T07:22:14;5.10;;;3.35;;
72573;SDS011;60603;52.548;13.420;2023-07-29T07:24:42;10.48;;;3.60;;
72573;SDS011;60603;52.548;13.420;2023-07-29T07:27:09;5.60;;;3.50;;
72573;SDS011;60603;52.548;13.420;2023-07-29T07:29:36;8.43;;;5.47;;
72573;SDS011;60603;52.548;13.420;2023-07-29T07:32:03;7.22;;;4.00;;
72573;SDS011;60603;52.548;13.420;2023-07-29T07:34:30;6.65;;;4.00;;
72573;SDS011;60603;52.548;13.420;2023-07-29T07:36:57;7.85;;;3.78;;
72573;SDS011;60603;52.548;13.420;2023-07-29T07:39:24;8.07;;;4.03;;
72573;SDS011;60603;52.548;13.420;2023-07-29T07:41:50;5.45;;;3.80;;
72573;SDS011;60603;52.548;13.420;2023-07-29T07:44:18;7.15;;;3.80;;
72573;SDS011;60603;52.548;13.420;2023-07-29T07:46:45;11.30;;;4.60;;
72573;SDS011;60603;52.548;13.420;2023-07-29T07:49:12;9.90;;;4.28;;
72573;SDS011;60603;52.548;13.420;2023-07-29T07:51:40;5.93;;;4.10;;
72573;SDS011;60603;52.548;13.420;2023-07-29T07:54:07;6.72;;;4.00;;
72573;SDS011;60603;52.548;13.420;2023-07-29T07:56:34;6.70;;;3.70;;
72573;SDS011;60603;52.548;13.420;2023-07-29T07:59:01;6.15;;;4.28;;
72573;SDS011;60603;52.548;13.420;2023-07-29T08:01:28;7.18;;;4.88;;
72573;SDS011;60603;52.548;13.420;2023-07-29T08:04:01;7.07;;;4.10;;
72573;SDS011;60603;52.548;13.420;2023-07-29T08:06:28;7.15;;;4.50;;
72573;SDS011;60603;52.548;13.420;2023-07-29T08:08:55;5.07;;;3.67;;
72573;SDS011;60603;52.548;13.420;2023-07-29T08:11:22;5.75;;;4.15;;
72573;SDS011;60603;52.548;13.420;2023-07-29T08:13:49;5.60;;;3.67;;
72573;SDS011;60603;52.548;13.420;2023-07-29T08:16:15;5.78;;;4.40;;
72573;SDS011;60603;52.548;13.420;2023-07-29T08:18:42;6.38;;;4.03;;
72573;SDS011;60603;52.548;13.420;2023-07-29T08:21:10;7.50;;;4.40;;
72573;SDS011;60603;52.548;13.420;2023-07-29T08:23:37;5.57;;;4.45;;
72573;SDS011;60603;52.548;13.420;2023-07-29T08:26:05;4.60;;;3.33;;
72573;SDS011;60603;52.548;13.420;2023-07-29T08:28:38;5.88;;;3.47;;
72573;SDS011;60603;52.548;13.420;2023-07-29T08:31:05;6.40;;;3.58;;
72573;SDS011;60603;52.548;13.420;2023-07-29T08:33:33;4.63;;;3.35;;
72573;SDS011;60603;52.548;13.420;2023-07-29T08:36:01;6.57;;;3.58;;
72573;SDS011;60603;52.548;13.420;2023-07-29T08:38:29;6.45;;;3.80;;
72573;SDS011;60603;52.548;13.420;2023-07-29T08:41:00;5.68;;;3.35;;
72573;SDS011;60603;52.548;13.420;2023-07-29T08:43:33;5.13;;;3.42;;
72573;SDS011;60603;52.548;13.420;2023-07-29T08:46:01;5.68;;;3.05;;
72573;SDS011;60603;52.548;13.420;2023-07-29T08:48:32;7.38;;;3.30;;
72573;SDS011;60603;52.548;13.420;2023-07-29T08:51:03;8.40;;;3.20;;
72573;SDS011;60603;52.548;13.420;2023-07-29T08:55:58;4.63;;;2.97;;
72573;SDS011;60603;52.548;13.420;2023-07-29T08:58:25;5.45;;;3.65;;
72573;SDS011;60603;52.548;13.420;2023-07-29T09:00:52;6.05;;;3.60;;
72573;SDS011;60603;52.548;13.420;2023-07-29T09:03:20;4.75;;;2.80;;
72573;SDS011;60603;52.548;13.420;2023-07-29T09:05:47;6.72;;;3.83;;
72573;SDS011;60603;52.548;13.420;2023-07-29T09:08:15;5.53;;;3.60;;
72573;SDS011;60603;52.548;13.420;2023-07-29T09:10:41;5.60;;;3.50;;
72573;SDS011;60603;52.548;13.420;2023-07-29T09:13:08;5.30;;;2.67;;
72573;SDS011;60603;52.548;13.420;2023-07-29T09:15:35;5.07;;;3.03;;
72573;SDS011;60603;52.548;13.420;2023-07-29T09:18:10;7.40;;;3.05;;
72573;SDS011;60603;52.548;13.420;2023-07-29T09:20:38;4.15;;;2.70;;
72573;SDS011;60603;52.548;13.420;2023-07-29T09:23:07;5.00;;;2.75;;
72573;SDS011;60603;52.548;13.420;2023-07-29T09:25:38;3.78;;;2.55;;
72573;SDS011;60603;52.548;13.420;2023-07-29T09:28:10;5.07;;;2.75;;
72573;SDS011;60603;52.548;13.420;2023-07-29T09:30:39;6.03;;;2.95;;
72573;SDS011;60603;52.548;13.420;2023-07-29T09:33:06;4.88;;;2.45;;
72573;SDS011;60603;52.548;13.420;2023-07-29T09:35:34;4.00;;;2.40;;
72573;SDS011;60603;52.548;13.420;2023-07-29T09:38:05;4.55;;;2.67;;
72573;SDS011;60603;52.548;13.420;2023-07-29T09:40:37;6.40;;;2.70;;
72573;SDS011;60603;52.548;13.420;2023-07-29T09:43:06;4.13;;;2.53;;
72573;SDS011;60603;52.548;13.420;2023-07-29T09:45:35;5.07;;;2.60;;
72573;SDS011;60603;52.548;13.420;2023-07-29T09:48:03;4.43;;;2.85;;
72573;SDS011;60603;52.548;13.420;2023-07-29T09:50:36;4.60;;;2.17;;
72573;SDS011;60603;52.548;13.420;2023-07-29T09:53:03;4.60;;;2.67;;
72573;SDS011;60603;52.548;13.420;2023-07-29T09:55:32;4.93;;;2.30;;
72573;SDS011;60603;52.548;13.420;2023-07-29T09:58:00;6.28;;;2.65;;
72573;SDS011;60603;52.548;13.420;2023-07-29T10:00:31;5.45;;;2.92;;
72573;SDS011;60603;52.548;13.420;2023-07-29T10:02:58;4.15;;;2.50;;
72573;SDS011;60603;52.548;13.420;2023-07-29T10:05:26;5.55;;;2.38;;
72573;SDS011;60603;52.548;13.420;2023-07-29T10:07:54;4.38;;;2.35;;
72573;SDS011;60603;52.548;13.420;2023-07-29T10:10:22;6.95;;;2.53;;
72573;SDS011;60603;52.548;13.420;2023-07-29T10:12:49;4.40;;;2.63;;
72573;SDS011;60603;52.548;13.420;2023-07-29T10:15:17;5.10;;;2.63;;
72573;SDS011;60603;52.548;13.420;2023-07-29T10:17:44;7.82;;;4.47;;
72573;SDS011;60603;52.548;13.420;2023-07-29T10:20:15;5.35;;;3.13;;
72573;SDS011;60603;52.548;13.420;2023-07-29T10:22:43;4.72;;;2.40;;
72573;SDS011;60603;52.548;13.420;2023-07-29T10:25:23;4.22;;;2.42;;
72573;SDS011;60603;52.548;13.420;2023-07-29T10:30:21;5.55;;;2.78;;
72573;SDS011;60603;52.548;13.420;2023-07-29T10:32:48;5.25;;;2.20;;
72573;SDS011;60603;52.548;13.420;2023-07-29T10:35:16;4.30;;;2.60;;
72573;SDS011;60603;52.548;13.420;2023-07-29T10:37:43;4.85;;;2.88;;
72573;SDS011;60603;52.548;13.420;2023-07-29T10:40:11;4.70;;;2.88;;
72573;SDS011;60603;52.548;13.420;2023-07-29T10:42:39;4.15;;;2.65;;
72573;SDS011;60603;52.548;13.420;2023-07-29T10:45:27;4.47;;;2.50;;
72573;SDS011;60603;52.548;13.420;2023-07-29T10:48:13;5.32;;;2.35;;
72573;SDS011;60603;52.548;13.420;2023-07-29T10:54:00;4.10;;;2.40;;
72573;SDS011;60603;52.548;13.420;2023-07-29T10:56:36;4.75;;;2.50;;
72573;SDS011;60603;52.548;13.420;2023-07-29T11:01:41;4.90;;;2.40;;
72573;SDS011;60603;52.548;13.420;2023-07-29T11:07:31;4.63;;;2.17;;
72573;SDS011;60603;52.548;13.420;2023-07-29T11:12:22;5.38;;;2.65;;
72573;SDS011;60603;52.548;13.420;2023-07-29T11:17:43;3.47;;;1.83;;
72573;SDS011;60603;52.548;13.420;2023-07-29T11:20:21;5.22;;;1.88;;
72573;SDS011;60603;52.548;13.420;2023-07-29T11:25:16;4.07;;;1.30;;
72573;SDS011;60603;52.548;13.420;2023-07-29T11:27:44;2.78;;;1.02;;
72573;SDS011;60603;52.548;13.420;2023-07-29T11:30:12;4.63;;;1.25;;
72573;SDS011;60603;52.548;13.420;2023-07-29T11:32:40;3.75;;;1.20;;
72573;SDS011;60603;52.548;13.420;2023-07-29T11:35:09;5.25;;;1.40;;
72573;SDS011;60603;52.548;13.420;2023-07-29T11:37:38;5.18;;;1.27;;
72573;SDS011;60603;52.548;13.420;2023-07-29T11:40:05;3.72;;;1.33;;
72573;SDS011;60603;52.548;13.420;2023-07-29T11:42:33;3.90;;;1.20;;
72573;SDS011;60603;52.548;13.420;2023-07-29T11:45:01;10.45;;;1.60;;
72573;SDS011;60603;52.548;13.420;2023-07-29T11:47:31;4.18;;;1.02;;
72573;SDS011;60603;52.548;13.420;2023-07-29T11:50:05;4.32;;;1.48;;
72573;SDS011;60603;52.548;13.420;2023-07-29T11:52:33;5.68;;;1.63;;
72573;SDS011;60603;52.548;13.420;2023-07-29T11:55:01;2.05;;;0.80;;
72573;SDS011;60603;52.548;13.420;2023-07-29T11:57:29;3.13;;;1.30;;
72573;SDS011;60603;52.548;13.420;2023-07-29T11:59:57;2.47;;;1.02;;
72573;SDS011;60603;52.548;13.420;2023-07-29T12:02:24;3.40;;;1.38;;
72573;SDS011;60603;52.548;13.420;2023-07-29T12:04:52;5.68;;;1.38;;
72573;SDS011;60603;52.548;13.420;2023-07-29T12:07:20;4.10;;;1.58;;
72573;SDS011;60603;52.548;13.420;2023-07-29T12:09:47;3.47;;;1.20;;
72573;SDS011;60603;52.548;13.420;2023-07-29T12:12:14;3.35;;;1.20;;
72573;SDS011;60603;52.548;13.420;2023-07-29T12:14:47;4.00;;;1.40;;
72573;SDS011;60603;52.548;13.420;2023-07-29T12:17:14;3.72;;;1.15;;
72573;SDS011;60603;52.548;13.420;2023-07-29T12:19:42;3.80;;;1.60;;
72573;SDS011;60603;52.548;13.420;2023-07-29T12:22:09;3.53;;;1.30;;
72573;SDS011;60603;52.548;13.420;2023-07-29T12:24:38;7.07;;;1.90;;
72573;SDS011;60603;52.548;13.420;2023-07-29T12:27:10;3.67;;;1.10;;
72573;SDS011;60603;52.548;13.420;2023-07-29T12:29:42;5.13;;;1.98;;
72573;SDS011;60603;52.548;13.420;2023-07-29T12:32:10;4.63;;;1.30;;
72573;SDS011;60603;52.548;13.420;2023-07-29T12:34:37;4.22;;;1.40;;
72573;SDS011;60603;52.548;13.420;2023-07-29T12:37:06;3.47;;;1.48;;
72573;SDS011;60603;52.548;13.420;2023-07-29T12:39:34;6.57;;;1.67;;
72573;SDS011;60603;52.548;13.420;2023-07-29T12:42:02;4.18;;;1.50;;
72573;SDS011;60603;52.548;13.420;2023-07-29T12:44:32;5.93;;;1.98;;
72573;SDS011;60603;52.548;13.420;2023-07-29T12:47:04;24.92;;;3.08;;
72573;SDS011;60603;52.548;13.420;2023-07-29T12:49:32;3.53;;;1.55;;
72573;SDS011;60603;52.548;13.420;2023-07-29T12:51:59;4.10;;;1.50;;
72573;SDS011;60603;52.548;13.420;2023-07-29T12:54:27;4.30;;;1.73;;
72573;SDS011;60603;52.548;13.420;2023-07-29T12:56:53;5.38;;;1.52;;
72573;SDS011;60603;52.548;13.420;2023-07-29T12:59:20;4.15;;;1.73;;
72573;SDS011;60603;52.548;13.420;2023-07-29T13:01:47;4.97;;;1.73;;
72573;SDS011;60603;52.548;13.420;2023-07-29T13:04:14;3.85;;;1.80;;
72573;SDS011;60603;52.548;13.420;2023-07-29T13:06:41;4.75;;;2.10;;
72573;SDS011;60603;52.548;13.420;2023-07-29T13:09:08;5.85;;;2.60;;
72573;SDS011;60603;52.548;13.420;2023-07-29T13:11:35;3.50;;;1.80;;
72573;SDS011;60603;52.548;13.420;2023-07-29T13:14:02;5.63;;;2.72;;
72573;SDS011;60603;52.548;13.420;2023-07-29T13:16:29;5.80;;;2.10;;
72573;SDS011;60603;52.548;13.420;2023-07-29T13:18:56;5.18;;;2.10;;
72573;SDS011;60603;52.548;13.420;2023-07-29T13:21:23;4.30;;;2.20;;
72573;SDS011;60603;52.548;13.420;2023-07-29T13:23:51;8.13;;;3.05;;
72573;SDS011;60603;52.548;13.420;2023-07-29T13:26:18;4.28;;;2.20;;
72573;SDS011;60603;52.548;13.420;2023-07-29T13:28:45;5.32;;;2.20;;
72573;SDS011;60603;52.548;13.420;2023-07-29T13:31:12;3.92;;;2.35;;
72573;SDS011;60603;52.548;13.420;2023-07-29T13:33:39;3.90;;;2.60;;
72573;SDS011;60603;52.548;13.420;2023-07-29T13:36:06;5.30;;;2.72;;
72573;SDS011;60603;52.548;13.420;2023-07-29T13:38:35;5.22;;;2.58;;
72573;SDS011;60603;52.548;13.420;2023-07-29T13:41:02;5.78;;;2.45;;
72573;SDS011;60603;52.548;13.420;2023-07-29T13:43:29;5.25;;;2.33;;
72573;SDS011;60603;52.548;13.420;2023-07-29T13:45:56;4.97;;;2.05;;
72573;SDS011;60603;52.548;13.420;2023-07-29T13:48:23;3.75;;;2.25;;
72573;SDS011;60603;52.548;13.420;2023-07-29T13:50:50;4.85;;;2.15;;
72573;SDS011;60603;52.548;13.420;2023-07-29T13:53:18;3.95;;;2.25;;
72573;SDS011;60603;52.548;13.420;2023-07-29T13:55:45;3.10;;;1.65;;
72573;SDS011;60603;52.548;13.420;2023-07-29T13:58:12;4.18;;;2.10;;
72573;SDS011;60603;52.548;13.420;2023-07-29T14:00:38;3.17;;;1.95;;
72573;SDS011;60603;52.548;13.420;2023-07-29T14:03:05;4.07;;;1.90;;
72573;SDS011;60603;52.548;13.420;2023-07-29T14:05:32;4.07;;;1.50;;
72573;SDS011;60603;52.548;13.420;2023-07-29T14:07:59;3.38;;;1.80;;
72573;SDS011;60603;52.548;13.420;2023-07-29T14:10:26;3.47;;;1.30;;
72573;SDS011;60603;52.548;13.420;2023-07-29T14:12:53;3.50;;;1.70;;
72573;SDS011;60603;52.548;13.420;2023-07-29T14:15:20;3.20;;;1.80;;
72573;SDS011;60603;52.548;13.420;2023-07-29T14:17:47;2.70;;;1.40;;
72573;SDS011;60603;52.548;13.420;2023-07-29T14:20:14;3.60;;;1.50;;
72573;SDS011;60603;52.548;13.420;2023-07-29T14:22:41;3.53;;;1.50;;
72573;SDS011;60603;52.548;13.420;2023-07-29T14:25:08;4.20;;;1.85;;
72573;SDS011;60603;52.548;13.420;2023-07-29T14:27:35;3.53;;;1.40;;
72573;SDS011;60603;52.548;13.420;2023-07-29T14:30:02;3.85;;;1.58;;
72573;SDS011;60603;52.548;13.420;2023-07-29T14:32:30;3.72;;;1.60;;
72573;SDS011;60603;52.548;13.420;2023-07-29T14:34:57;3.53;;;1.70;;
72573;SDS011;60603;52.548;13.420;2023-07-29T14:37:24;2.70;;;1.20;;
72573;SDS011;60603;52.548;13.420;2023-07-29T14:39:51;4.35;;;1.77;;
72573;SDS011;60603;52.548;13.420;2023-07-29T14:42:20;4.30;;;2.08;;
72573;SDS011;60603;52.548;13.420;2023-07-29T14:44:47;2.80;;;1.23;;
72573;SDS011;60603;52.548;13.420;2023-07-29T14:47:14;2.88;;;1.40;;
72573;SDS011;60603;52.548;13.420;2023-07-29T14:49:41;2.88;;;1.30;;
72573;SDS011;60603;52.548;13.420;2023-07-29T14:52:08;3.13;;;1.13;;
72573;SDS011;60603;52.548;13.420;2023-07-29T14:54:35;2.95;;;1.30;;
72573;SDS011;60603;52.548;13.420;2023-07-29T14:57:01;3.80;;;1.20;;
72573;SDS011;60603;52.548;13.420;2023-07-29T14:59:29;3.30;;;1.30;;
72573;SDS011;60603;52.548;13.420;2023-07-29T15:01:56;3.72;;;1.40;;
72573;SDS011;60603;52.548;13.420;2023-07-29T15:04:24;2.40;;;1.20;;